Time;durP1;ratioP1;P1;durP2;ratioP2;P2;SDS_P1;SDS_P2;PMS_P1;PMS_P2;Temp;Humidity;BMP_temperature;BMP_pressure;BME280_temperature;BME280_humidity;BME280_pressure;Samples;Min_cycle;Max_cycle;Signal;HPM_P1;HPM_P2
2021/05/13 00:01:40;;;;;;;5.57;5.13;;;10.40;99.90;;;;;;5107943;28;20196;-78
2021/05/13 00:04:05;;;;;;;5.17;4.67;;;10.40;99.90;;;;;;5108660;28;20636;-78
2021/05/13 00:06:31;;;;;;;5.37;4.90;;;10.40;99.90;;;;;;5109073;28;20180;-80
2021/05/13 00:08:57;;;;;;;5.30;4.87;;;10.30;99.90;;;;;;5108471;28;20180;-78
2021/05/13 00:11:33;;;;;;;7.77;5.70;;;10.30;99.90;;;;;;5108311;28;20711;-78
2021/05/13 00:14:00;;;;;;;5.00;4.43;;;10.30;99.90;;;;;;5108112;28;20208;-77
2021/05/13 00:16:31;;;;;;;6.27;4.70;;;10.30;99.90;;;;;;5108240;28;20418;-78
2021/05/13 00:19:07;;;;;;;5.40;4.90;;;10.30;99.90;;;;;;5108265;28;20422;-77
2021/05/13 00:21:34;;;;;;;5.17;4.77;;;10.20;99.90;;;;;;5108536;28;20495;-77
2021/05/13 00:23:59;;;;;;;5.53;5.10;;;10.20;99.90;;;;;;5107987;28;20491;-76
2021/05/13 00:26:36;;;;;;;6.37;5.10;;;10.20;99.90;;;;;;5108176;28;20505;-78
2021/05/13 00:29:13;;;;;;;6.40;5.43;;;10.20;99.90;;;;;;5108058;28;20317;-77
2021/05/13 00:31:40;;;;;;;5.80;5.20;;;10.10;99.90;;;;;;5107981;28;20450;-78
2021/05/13 00:34:06;;;;;;;6.00;5.50;;;10.10;99.90;;;;;;5107808;28;20603;-77
2021/05/13 00:36:34;;;;;;;5.77;5.27;;;10.00;99.90;;;;;;5111875;28;20425;-78
2021/05/13 00:39:00;;;;;;;6.30;5.70;;;10.00;99.90;;;;;;5112181;28;20504;-78
2021/05/13 00:41:26;;;;;;;5.00;4.60;;;9.90;99.90;;;;;;5101080;28;21036;-77
2021/05/13 00:43:53;;;;;;;5.63;5.00;;;9.90;99.90;;;;;;5112410;28;20527;-79
2021/05/13 00:46:20;;;;;;;5.53;5.00;;;9.80;99.90;;;;;;5111739;28;20418;-78
2021/05/13 00:48:46;;;;;;;5.93;5.23;;;9.80;99.90;;;;;;5101492;28;20440;-78
2021/05/13 00:51:13;;;;;;;5.70;5.17;;;9.70;99.90;;;;;;5111580;28;20437;-77
2021/05/13 00:53:48;;;;;;;5.97;5.20;;;9.70;99.90;;;;;;5111917;28;20625;-78
2021/05/13 00:56:14;;;;;;;5.90;5.40;;;9.70;99.90;;;;;;5110027;28;20421;-78
2021/05/13 00:58:44;;;;;;;5.43;4.93;;;9.60;99.90;;;;;;5111628;28;20448;-76
2021/05/13 01:01:12;;;;;;;6.00;5.50;;;9.60;99.90;;;;;;5111618;28;20516;-78
2021/05/13 01:03:38;;;;;;;5.77;5.27;;;9.60;99.90;;;;;;5112264;28;20509;-76
2021/05/13 01:06:14;;;;;;;5.73;5.23;;;9.60;99.90;;;;;;5111647;28;20538;-77
2021/05/13 01:08:41;;;;;;;5.73;4.80;;;9.60;99.90;;;;;;5111735;28;20192;-77
2021/05/13 01:11:10;;;;;;;6.10;5.60;;;9.50;99.90;;;;;;5111347;28;20442;-77
2021/05/13 01:13:55;;;;;;;5.97;5.40;;;9.50;99.90;;;;;;5111105;28;20504;-77
2021/05/13 01:16:28;;;;;;;5.87;5.37;;;9.50;99.90;;;;;;5104691;28;20442;-78
2021/05/13 01:18:54;;;;;;;8.10;5.83;;;9.50;99.90;;;;;;5111395;28;20402;-78
2021/05/13 01:21:20;;;;;;;5.63;5.13;;;9.40;99.90;;;;;;5111133;28;20445;-78
2021/05/13 01:23:46;;;;;;;5.63;5.10;;;9.40;99.90;;;;;;5104590;28;20189;-79
2021/05/13 01:26:14;;;;;;;5.40;4.87;;;9.50;99.90;;;;;;5111295;28;20177;-77
2021/05/13 01:28:40;;;;;;;6.00;5.40;;;9.40;99.90;;;;;;5111312;28;20834;-78
2021/05/13 01:31:05;;;;;;;6.13;5.23;;;9.40;99.90;;;;;;5110739;28;20489;-77
2021/05/13 01:33:31;;;;;;;5.80;5.20;;;9.40;99.90;;;;;;5111417;28;20218;-78
2021/05/13 01:35:56;;;;;;;5.57;5.00;;;9.40;99.90;;;;;;5110720;28;20279;-78
2021/05/13 01:38:23;;;;;;;7.17;5.20;;;9.30;99.90;;;;;;5093143;28;20185;-77
2021/05/13 01:40:55;;;;;;;7.23;5.33;;;9.30;99.90;;;;;;5110512;28;20201;-77
2021/05/13 01:43:23;;;;;;;6.17;5.30;;;9.30;99.90;;;;;;5112481;28;20906;-78
2021/05/13 01:45:48;;;;;;;6.57;5.97;;;9.30;99.90;;;;;;5117227;28;20781;-78
2021/05/13 01:48:14;;;;;;;5.30;4.80;;;9.30;99.90;;;;;;5113595;28;20478;-78
2021/05/13 01:50:39;;;;;;;5.57;5.07;;;9.30;99.90;;;;;;5100430;28;20216;-79
2021/05/13 01:53:07;;;;;;;7.10;6.23;;;9.30;99.90;;;;;;5110687;28;20210;-78
2021/05/13 01:55:34;;;;;;;5.60;5.10;;;9.30;99.90;;;;;;5111034;28;20172;-77
2021/05/13 01:57:59;;;;;;;6.87;6.30;;;9.20;99.90;;;;;;5110868;28;20430;-77
2021/05/13 02:00:25;;;;;;;6.20;5.60;;;9.30;99.90;;;;;;5109378;28;20434;-78
2021/05/13 02:02:51;;;;;;;5.67;5.17;;;9.30;99.90;;;;;;5111055;28;20519;-77
2021/05/13 02:05:18;;;;;;;7.10;6.07;;;9.30;99.90;;;;;;5110972;28;20530;-77
2021/05/13 02:07:44;;;;;;;6.67;6.00;;;9.20;99.90;;;;;;5110425;28;20566;-78
2021/05/13 02:10:11;;;;;;;5.80;5.30;;;9.20;99.90;;;;;;5101508;28;20977;-77
2021/05/13 02:12:38;;;;;;;7.80;5.60;;;9.20;99.90;;;;;;5100437;28;20426;-77
2021/05/13 02:15:06;;;;;;;6.23;5.70;;;9.20;99.90;;;;;;5110398;28;20457;-78
2021/05/13 02:17:31;;;;;;;5.87;5.40;;;9.20;99.90;;;;;;5110091;28;20910;-77
2021/05/13 02:19:57;;;;;;;7.10;6.20;;;9.20;99.90;;;;;;5110486;28;20437;-78
2021/05/13 02:22:22;;;;;;;7.53;6.50;;;9.10;99.90;;;;;;5110248;28;20656;-78
2021/05/13 02:24:48;;;;;;;6.33;5.40;;;9.10;99.90;;;;;;5110315;28;20728;-77
2021/05/13 02:27:13;;;;;;;6.53;5.90;;;9.10;99.90;;;;;;5110044;28;20709;-76
2021/05/13 02:29:39;;;;;;;7.60;6.90;;;9.10;99.90;;;;;;5109792;28;20218;-77
2021/05/13 02:32:05;;;;;;;6.00;5.40;;;9.10;99.90;;;;;;5110056;28;20573;-77
2021/05/13 02:34:30;;;;;;;8.43;6.13;;;9.20;99.90;;;;;;5109920;28;20227;-77
2021/05/13 02:36:56;;;;;;;5.60;5.20;;;9.10;99.90;;;;;;5100398;28;20415;-77
2021/05/13 02:39:31;;;;;;;6.67;6.07;;;9.10;99.90;;;;;;5109671;28;20177;-78
2021/05/13 02:41:56;;;;;;;6.73;6.03;;;9.10;99.90;;;;;;5106662;28;20195;-78
2021/05/13 02:44:22;;;;;;;7.30;6.70;;;9.10;99.90;;;;;;5110057;28;20788;-78
2021/05/13 02:46:47;;;;;;;6.50;5.57;;;9.00;99.90;;;;;;5109850;28;20558;-77
2021/05/13 02:49:13;;;;;;;7.03;6.37;;;9.00;99.90;;;;;;5110010;28;20192;-77
2021/05/13 02:51:38;;;;;;;6.60;6.00;;;8.90;99.90;;;;;;5102810;28;20643;-78
2021/05/13 02:54:04;;;;;;;7.17;6.53;;;8.90;99.90;;;;;;5109649;28;20285;-78
2021/05/13 02:56:29;;;;;;;7.83;6.27;;;8.90;99.90;;;;;;5109570;28;20176;-75
2021/05/13 02:58:56;;;;;;;8.00;6.50;;;8.80;99.90;;;;;;5108780;28;20730;-79
2021/05/13 03:01:26;;;;;;;7.60;6.53;;;8.80;99.90;;;;;;5109914;28;20196;-77
2021/05/13 03:03:53;;;;;;;6.87;6.27;;;8.80;99.90;;;;;;5104069;28;20879;-78
2021/05/13 03:06:20;;;;;;;11.03;7.63;;;8.80;99.90;;;;;;5100888;28;20484;-76
2021/05/13 03:08:49;;;;;;;7.63;6.93;;;8.90;99.90;;;;;;5109617;28;20418;-78
2021/05/13 03:11:14;;;;;;;7.10;6.40;;;8.90;99.90;;;;;;5108758;28;20529;-77
2021/05/13 03:13:40;;;;;;;8.17;7.20;;;8.90;99.90;;;;;;5103124;28;20557;-78
2021/05/13 03:16:06;;;;;;;7.67;6.60;;;8.80;99.90;;;;;;5108993;28;20203;-76
2021/05/13 03:18:33;;;;;;;8.73;6.63;;;8.80;99.90;;;;;;5109073;28;20172;-79
2021/05/13 03:23:29;;;;;;;8.37;7.67;;;8.70;99.90;;;;;;5109054;28;20435;-79
2021/05/13 03:26:01;;;;;;;8.40;7.60;;;8.60;99.90;;;;;;5109360;28;20533;-76
2021/05/13 03:28:27;;;;;;;9.97;7.27;;;8.60;99.90;;;;;;5101291;28;20419;-77
2021/05/13 03:30:53;;;;;;;8.33;7.53;;;8.70;99.90;;;;;;5104270;28;20447;-76
2021/05/13 03:33:18;;;;;;;9.27;8.20;;;8.60;99.90;;;;;;5099437;28;20462;-80
2021/05/13 03:35:44;;;;;;;6.73;6.13;;;8.60;99.90;;;;;;5109366;28;20203;-78
2021/05/13 03:38:11;;;;;;;7.83;7.10;;;8.60;99.90;;;;;;5097067;28;20191;-77
2021/05/13 03:40:38;;;;;;;8.90;8.10;;;8.50;99.90;;;;;;5108130;28;20571;-79
2021/05/13 03:43:04;;;;;;;8.27;7.47;;;8.50;99.90;;;;;;5092801;28;20433;-77
2021/05/13 03:45:30;;;;;;;9.47;8.03;;;8.50;99.90;;;;;;5108701;28;20426;-78
2021/05/13 03:47:56;;;;;;;7.90;7.20;;;8.50;99.90;;;;;;5108708;28;20779;-79
2021/05/13 03:50:22;;;;;;;8.20;7.40;;;8.50;99.90;;;;;;5108600;28;20499;-77
2021/05/13 03:52:47;;;;;;;8.00;6.47;;;8.50;99.90;;;;;;5108668;28;20652;-78
2021/05/13 03:55:13;;;;;;;8.10;7.33;;;8.50;99.90;;;;;;5108564;28;20418;-77
2021/05/13 03:57:40;;;;;;;7.37;6.67;;;8.50;99.90;;;;;;5098810;28;20656;-79
2021/05/13 04:00:09;;;;;;;11.00;8.97;;;8.40;99.90;;;;;;5107914;28;20426;-77
2021/05/13 04:02:35;;;;;;;7.87;7.07;;;8.50;99.90;;;;;;5108302;28;20398;-77
2021/05/13 04:05:02;;;;;;;8.97;7.90;;;8.40;99.90;;;;;;5108369;28;20425;-76
2021/05/13 04:07:30;;;;;;;8.27;7.50;;;8.40;99.90;;;;;;5108427;28;20206;-78
2021/05/13 04:09:56;;;;;;;8.20;7.50;;;8.40;99.90;;;;;;5107866;28;20906;-78
2021/05/13 04:12:22;;;;;;;7.70;7.00;;;8.40;99.90;;;;;;5093722;28;20429;-77
2021/05/13 04:14:48;;;;;;;8.60;7.80;;;8.40;99.90;;;;;;5094411;28;20506;-78
2021/05/13 04:17:14;;;;;;;7.80;7.00;;;8.40;99.90;;;;;;5108261;28;20406;-77
2021/05/13 04:19:39;;;;;;;8.10;7.30;;;8.40;99.90;;;;;;5110090;28;20414;-77
2021/05/13 04:22:05;;;;;;;7.60;6.83;;;8.50;99.90;;;;;;5108035;28;20264;-77
2021/05/13 04:24:31;;;;;;;7.83;7.13;;;8.50;99.90;;;;;;5108168;28;20175;-76
2021/05/13 04:26:56;;;;;;;8.60;7.30;;;8.50;99.90;;;;;;5107925;28;20610;-77
2021/05/13 04:29:22;;;;;;;10.10;8.37;;;8.50;99.90;;;;;;5107376;28;20177;-76
2021/05/13 04:31:48;;;;;;;8.23;7.40;;;8.50;99.90;;;;;;5094513;28;20200;-79
2021/05/13 04:34:13;;;;;;;7.87;6.70;;;8.60;99.90;;;;;;5107785;28;20574;-78
2021/05/13 04:36:39;;;;;;;7.67;7.07;;;8.50;99.90;;;;;;5107862;28;20180;-78
2021/05/13 04:39:05;;;;;;;8.13;7.33;;;8.50;99.90;;;;;;5108056;28;20181;-78
2021/05/13 04:41:33;;;;;;;7.53;6.87;;;8.60;99.90;;;;;;5106769;28;20604;-79
2021/05/13 04:43:59;;;;;;;7.83;7.10;;;8.60;99.90;;;;;;5101854;28;20964;-77
2021/05/13 04:46:28;;;;;;;6.87;6.23;;;8.70;99.90;;;;;;5107974;28;20902;-77
2021/05/13 04:49:03;;;;;;;7.83;7.03;;;8.70;99.90;;;;;;5107694;28;20508;-77
2021/05/13 04:51:32;;;;;;;9.77;7.13;;;8.80;99.90;;;;;;5102504;28;20886;-78
2021/05/13 04:53:59;;;;;;;7.43;6.70;;;8.80;99.90;;;;;;5108513;28;20501;-78
2021/05/13 04:56:25;;;;;;;8.70;6.63;;;8.90;99.90;;;;;;5101608;28;20406;-78
2021/05/13 04:58:50;;;;;;;9.17;7.80;;;8.90;99.90;;;;;;5091857;28;20767;-78
2021/05/13 05:01:18;;;;;;;9.70;7.83;;;9.10;99.90;;;;;;5106044;28;20529;-78
2021/05/13 05:03:43;;;;;;;7.80;7.10;;;9.20;99.90;;;;;;5107687;28;20241;-78
2021/05/13 05:06:10;;;;;;;8.60;7.80;;;9.20;99.90;;;;;;5107450;28;20418;-78
2021/05/13 05:08:36;;;;;;;9.87;8.53;;;9.40;99.90;;;;;;5107395;28;20176;-79
2021/05/13 05:11:02;;;;;;;10.67;9.60;;;9.30;99.90;;;;;;5107540;28;20439;-78
2021/05/13 05:13:29;;;;;;;9.80;8.27;;;9.40;99.90;;;;;;5107635;28;20465;-79
2021/05/13 05:15:55;;;;;;;9.40;8.57;;;9.40;99.90;;;;;;5107668;28;20168;-79
2021/05/13 05:18:21;;;;;;;10.23;9.33;;;9.50;99.90;;;;;;5104905;28;20410;-78
2021/05/13 05:20:48;;;;;;;12.83;10.60;;;9.50;99.90;;;;;;5108559;28;20196;-79
2021/05/13 05:23:14;;;;;;;15.47;11.70;;;9.60;99.90;;;;;;5107679;28;20892;-79
2021/05/13 05:25:39;;;;;;;11.60;10.50;;;9.60;99.90;;;;;;5106443;28;20504;-78
2021/05/13 05:28:06;;;;;;;11.07;9.97;;;9.60;99.90;;;;;;5118060;28;20184;-81
2021/05/13 05:30:33;;;;;;;11.30;10.20;;;9.60;99.90;;;;;;5118630;28;20204;-78
2021/05/13 05:33:10;;;;;;;11.27;10.17;;;9.60;99.90;;;;;;5110694;28;20422;-77
2021/05/13 05:35:37;;;;;;;11.03;9.97;;;9.70;99.90;;;;;;5110932;28;20402;-78
2021/05/13 05:38:04;;;;;;;11.27;9.60;;;9.80;99.90;;;;;;5095179;28;20428;-79
2021/05/13 05:40:30;;;;;;;11.80;10.73;;;9.80;99.90;;;;;;5110264;28;20430;-78
2021/05/13 05:42:56;;;;;;;11.53;10.50;;;9.90;99.90;;;;;;5110477;28;20441;-78
2021/05/13 05:45:23;;;;;;;13.43;10.93;;;10.00;99.90;;;;;;5100418;28;20199;-78
2021/05/13 05:47:59;;;;;;;12.37;9.63;;;10.00;99.90;;;;;;5102859;28;20414;-79
2021/05/13 05:50:28;;;;;;;11.17;9.67;;;10.00;99.90;;;;;;5106862;28;20448;-78
2021/05/13 05:52:54;;;;;;;11.07;9.93;;;10.00;99.90;;;;;;5110279;28;20460;-79
2021/05/13 05:55:20;;;;;;;9.93;8.93;;;10.10;99.90;;;;;;5110017;28;20406;-78
2021/05/13 05:57:45;;;;;;;10.23;9.23;;;10.10;99.90;;;;;;5110575;28;20187;-76
2021/05/13 06:00:12;;;;;;;11.87;10.23;;;10.20;99.90;;;;;;5110054;28;20223;-78
2021/05/13 06:02:37;;;;;;;11.13;9.40;;;10.20;99.90;;;;;;5110159;27;20183;-78
2021/05/13 06:05:03;;;;;;;13.47;12.17;;;10.30;99.90;;;;;;5100673;28;20410;-78
2021/05/13 06:07:29;;;;;;;11.40;10.27;;;10.50;99.90;;;;;;5110090;28;20180;-77
2021/05/13 06:09:56;;;;;;;11.83;9.07;;;10.50;99.90;;;;;;5109956;28;20176;-77
2021/05/13 06:12:22;;;;;;;9.60;8.70;;;10.50;99.90;;;;;;5098451;28;20180;-77
2021/05/13 06:14:48;;;;;;;10.80;9.70;;;10.70;99.90;;;;;;5110052;28;20450;-79
2021/05/13 06:17:13;;;;;;;11.20;9.60;;;10.70;99.90;;;;;;5110020;28;20418;-76
2021/05/13 06:19:39;;;;;;;11.07;10.00;;;10.80;99.90;;;;;;5104769;28;20520;-77
2021/05/13 06:22:05;;;;;;;11.97;10.70;;;11.00;99.90;;;;;;5110055;28;20203;-76
2021/05/13 06:24:31;;;;;;;12.57;11.33;;;11.10;99.90;;;;;;5103470;28;20186;-79
2021/05/13 06:27:01;;;;;;;13.13;11.83;;;11.10;99.90;;;;;;5109948;28;20186;-77
2021/05/13 06:29:28;;;;;;;12.10;10.87;;;11.10;99.90;;;;;;5109087;28;20415;-79
2021/05/13 06:31:57;;;;;;;14.27;12.17;;;11.10;99.90;;;;;;5110034;28;20529;-79
2021/05/13 06:34:24;;;;;;;12.63;11.33;;;11.20;99.90;;;;;;5109774;28;20454;-77
2021/05/13 06:36:50;;;;;;;14.87;11.07;;;11.40;99.90;;;;;;5096505;28;20414;-78
2021/05/13 06:39:16;;;;;;;13.30;10.80;;;11.50;99.90;;;;;;5109924;28;20409;-78
2021/05/13 06:41:42;;;;;;;12.30;11.10;;;11.50;99.90;;;;;;5104849;28;20439;-76
2021/05/13 06:44:08;;;;;;;13.93;12.10;;;11.50;99.90;;;;;;5107725;28;20667;-78
2021/05/13 06:46:35;;;;;;;11.27;10.20;;;11.60;99.90;;;;;;5110167;28;20934;-76
2021/05/13 06:49:00;;;;;;;12.43;10.70;;;11.70;99.90;;;;;;5110192;28;20422;-78
2021/05/13 06:51:26;;;;;;;12.00;10.17;;;11.70;99.90;;;;;;5091148;28;20442;-78
2021/05/13 06:53:52;;;;;;;13.00;10.77;;;11.70;99.90;;;;;;5109614;28;20671;-77
2021/05/13 06:56:18;;;;;;;11.10;9.70;;;11.90;99.90;;;;;;5109508;28;20429;-78
2021/05/13 06:58:44;;;;;;;9.53;8.53;;;12.00;99.90;;;;;;5110182;28;20173;-78
2021/05/13 07:01:10;;;;;;;9.73;8.90;;;12.10;99.90;;;;;;5109191;28;20442;-77
2021/05/13 07:03:36;;;;;;;11.30;10.13;;;12.20;99.90;;;;;;5109474;28;20426;-76
2021/05/13 07:06:01;;;;;;;13.40;9.80;;;12.30;99.90;;;;;;5109468;28;20259;-77
2021/05/13 07:08:28;;;;;;;11.47;9.80;;;12.40;99.90;;;;;;5109577;28;20545;-78
2021/05/13 07:10:53;;;;;;;10.73;9.63;;;12.60;99.90;;;;;;5102368;28;20208;-78
2021/05/13 07:13:19;;;;;;;10.83;9.60;;;12.60;99.90;;;;;;5106650;28;20613;-76
2021/05/13 07:15:44;;;;;;;10.03;9.03;;;12.60;99.90;;;;;;5096323;28;20184;-76
2021/05/13 07:18:16;;;;;;;10.63;9.53;;;12.70;99.90;;;;;;5107968;28;20192;-78
2021/05/13 07:20:43;;;;;;;10.60;9.50;;;12.80;99.90;;;;;;5101197;28;20201;-77
2021/05/13 07:23:10;;;;;;;12.23;10.07;;;12.90;99.90;;;;;;5106516;28;20427;-77
2021/05/13 07:25:36;;;;;;;12.90;9.90;;;13.10;99.90;;;;;;5102344;28;20462;-77
2021/05/13 07:28:02;;;;;;;10.23;9.23;;;13.10;99.90;;;;;;5109292;28;20421;-77
2021/05/13 07:30:28;;;;;;;10.43;9.50;;;13.30;99.90;;;;;;5108450;28;20487;-77
2021/05/13 07:32:55;;;;;;;9.97;9.07;;;13.40;99.90;;;;;;5090626;28;20426;-78
2021/05/13 07:35:21;;;;;;;11.07;9.70;;;13.50;99.90;;;;;;5109064;28;20168;-78
2021/05/13 07:37:47;;;;;;;11.30;10.20;;;13.50;99.90;;;;;;5105355;28;20448;-75
2021/05/13 07:40:15;;;;;;;10.80;9.70;;;13.50;99.90;;;;;;5108915;28;20426;-78
2021/05/13 07:42:41;;;;;;;12.67;9.87;;;13.50;99.90;;;;;;5109294;28;20420;-77
2021/05/13 07:45:07;;;;;;;12.67;10.97;;;13.50;99.90;;;;;;5108638;28;20414;-76
2021/05/13 07:47:40;;;;;;;12.03;10.20;;;13.60;99.90;;;;;;5099118;28;20187;-78
2021/05/13 07:50:07;;;;;;;11.20;10.10;;;13.60;99.90;;;;;;5108772;28;20798;-77
2021/05/13 07:52:32;;;;;;;10.87;9.70;;;13.50;99.90;;;;;;5098825;28;20942;-77
2021/05/13 07:54:58;;;;;;;11.17;9.70;;;13.60;99.90;;;;;;5108410;28;20523;-78
2021/05/13 07:57:24;;;;;;;13.00;10.30;;;13.70;99.90;;;;;;5109087;28;20450;-76
2021/05/13 07:59:49;;;;;;;9.53;8.50;;;13.80;99.90;;;;;;5094166;28;20187;-76
2021/05/13 08:02:15;;;;;;;10.00;9.00;;;13.80;99.90;;;;;;5107337;28;20172;-75
2021/05/13 08:04:40;;;;;;;8.40;7.53;;;13.90;99.90;;;;;;5107991;28;20272;-77
2021/05/13 08:07:06;;;;;;;8.07;7.27;;;13.80;99.90;;;;;;5108031;28;20206;-76
2021/05/13 08:09:31;;;;;;;8.37;7.63;;;13.80;99.90;;;;;;5108082;28;20226;-78
2021/05/13 08:11:57;;;;;;;9.63;8.50;;;13.90;99.90;;;;;;5108238;28;20196;-77
2021/05/13 08:14:23;;;;;;;10.87;9.43;;;14.00;99.90;;;;;;5108199;28;20849;-77
2021/05/13 08:16:48;;;;;;;8.87;7.97;;;14.00;99.90;;;;;;5094966;28;20271;-76
2021/05/13 08:19:14;;;;;;;8.30;7.50;;;13.90;99.90;;;;;;5107957;28;20184;-77
2021/05/13 08:21:39;;;;;;;9.50;8.00;;;14.00;99.90;;;;;;5108017;28;20204;-76
2021/05/13 08:24:05;;;;;;;10.23;7.57;;;14.10;99.90;;;;;;5101023;28;20183;-75
2021/05/13 08:26:31;;;;;;;7.73;7.00;;;14.20;99.90;;;;;;5098453;28;20180;-77
2021/05/13 08:28:57;;;;;;;7.33;6.63;;;14.20;99.90;;;;;;5099122;28;20422;-75
2021/05/13 08:31:22;;;;;;;7.00;6.33;;;14.20;99.90;;;;;;5100206;28;20275;-76
2021/05/13 08:33:48;;;;;;;6.53;6.00;;;14.40;99.90;;;;;;5108257;28;20231;-77
2021/05/13 08:36:13;;;;;;;9.07;6.10;;;14.40;99.90;;;;;;5108085;28;20189;-76
2021/05/13 08:38:39;;;;;;;8.57;7.77;;;14.50;99.90;;;;;;5110848;28;20187;-76
2021/05/13 08:41:05;;;;;;;8.30;6.70;;;14.60;99.90;;;;;;5108631;28;20286;-75
2021/05/13 08:43:31;;;;;;;10.00;6.30;;;14.60;99.90;;;;;;5109263;28;20184;-77
2021/05/13 08:45:58;;;;;;;7.37;6.47;;;14.70;99.90;;;;;;5104200;28;20418;-78
2021/05/13 08:48:26;;;;;;;7.23;6.53;;;14.80;99.90;;;;;;5098287;28;20489;-76
2021/05/13 08:50:53;;;;;;;8.33;6.60;;;14.90;99.90;;;;;;5097757;28;20450;-77
2021/05/13 08:53:22;;;;;;;8.23;6.67;;;15.00;99.90;;;;;;5102143;28;20573;-76
2021/05/13 08:55:49;;;;;;;7.83;6.73;;;15.00;99.90;;;;;;5100131;28;20418;-76
2021/05/13 08:58:14;;;;;;;6.20;5.60;;;15.00;99.90;;;;;;5111023;28;20414;-77
2021/05/13 09:00:51;;;;;;;8.30;6.17;;;15.00;99.90;;;;;;5097069;28;20819;-78
2021/05/13 09:03:36;;;;;;;6.10;5.27;;;15.00;99.90;;;;;;5101097;28;20180;-76
2021/05/13 09:06:06;;;;;;;5.30;4.73;;;15.20;99.90;;;;;;5106208;28;20422;-77
2021/05/13 09:08:32;;;;;;;7.07;5.17;;;15.20;99.90;;;;;;5110638;28;20424;-76
2021/05/13 09:11:18;;;;;;;4.97;4.43;;;15.30;99.90;;;;;;5110055;28;21019;-77
2021/05/13 09:13:57;;;;;;;6.60;5.37;;;15.30;99.90;;;;;;5106343;28;20497;-76
2021/05/13 09:16:26;;;;;;;5.70;5.23;;;15.40;99.90;;;;;;5110526;28;20410;-74
2021/05/13 09:18:52;;;;;;;7.27;5.43;;;15.30;99.90;;;;;;5110310;28;20495;-76
2021/05/13 09:21:19;;;;;;;9.97;5.27;;;15.30;99.90;;;;;;5099961;28;20426;-76
2021/05/13 09:23:45;;;;;;;5.27;4.77;;;15.40;99.90;;;;;;5104160;28;20426;-76
2021/05/13 09:26:20;;;;;;;7.10;4.53;;;15.40;99.90;;;;;;5110254;28;20414;-76
2021/05/13 09:29:09;;;;;;;5.03;4.57;;;15.50;99.90;;;;;;5110337;28;20240;-75
2021/05/13 09:31:37;;;;;;;6.63;4.97;;;15.70;99.90;;;;;;5103452;28;20438;-76
2021/05/13 09:34:07;;;;;;;6.20;4.83;;;15.70;99.90;;;;;;5109952;28;20805;-76
2021/05/13 09:36:33;;;;;;;5.57;4.83;;;15.80;99.90;;;;;;5111025;28;20414;-76
2021/05/13 09:38:59;;;;;;;7.13;4.90;;;15.90;99.90;;;;;;5103165;28;20422;-76
2021/05/13 09:41:38;;;;;;;7.70;5.30;;;16.00;99.90;;;;;;5109983;28;20803;-76
2021/05/13 09:44:33;;;;;;;5.80;5.20;;;16.10;99.90;;;;;;5109945;28;20188;-76
2021/05/13 09:47:21;;;;;;;5.77;4.80;;;16.30;99.90;;;;;;5106617;28;20407;-75
2021/05/13 09:50:04;;;;;;;5.37;4.87;;;16.30;99.90;;;;;;5109587;28;20986;-75
2021/05/13 09:52:48;;;;;;;4.33;3.93;;;16.40;99.90;;;;;;5102366;28;20456;-78
2021/05/13 09:55:28;;;;;;;6.80;4.13;;;16.40;99.90;;;;;;5098858;28;20469;-78
2021/05/13 09:58:01;;;;;;;8.10;3.47;;;16.60;99.90;;;;;;5100104;28;20418;-76
2021/05/13 10:00:48;;;;;;;5.40;3.73;;;16.70;99.90;;;;;;5108642;28;20790;-75
2021/05/13 10:03:19;;;;;;;5.00;3.43;;;16.80;99.90;;;;;;5109527;28;20411;-75
2021/05/13 10:05:47;;;;;;;3.40;2.80;;;16.80;99.90;;;;;;5104163;28;20421;-76
2021/05/13 10:08:14;;;;;;;3.43;2.77;;;16.80;99.90;;;;;;5109256;28;20471;-76
2021/05/13 10:10:41;;;;;;;6.90;3.13;;;16.70;99.90;;;;;;5109314;28;20434;-76
2021/05/13 10:13:07;;;;;;;5.73;2.90;;;16.70;99.90;;;;;;5109307;28;20437;-76
2021/05/13 10:15:36;;;;;;;2.93;2.10;;;16.70;99.90;;;;;;5109297;28;20423;-76
2021/05/13 10:18:07;;;;;;;3.60;2.17;;;16.80;99.90;;;;;;5103700;28;20421;-77
2021/05/13 10:20:33;;;;;;;2.93;2.40;;;16.90;99.90;;;;;;5108701;28;20438;-76
2021/05/13 10:22:59;;;;;;;2.57;2.07;;;17.10;99.90;;;;;;5102973;28;20414;-76
2021/05/13 10:25:33;;;;;;;3.70;2.60;;;17.20;99.90;;;;;;5103604;28;20793;-77
2021/05/13 10:28:02;;;;;;;3.67;2.30;;;17.20;99.90;;;;;;5109050;28;20177;-75
2021/05/13 10:30:30;;;;;;;2.73;1.70;;;17.20;99.90;;;;;;5108632;28;20499;-76
2021/05/13 10:33:13;;;;;;;5.87;2.50;;;17.10;99.90;;;;;;5099170;28;20934;-76
2021/05/13 10:35:54;;;;;;;4.97;2.53;;;17.30;99.90;;;;;;5103759;28;20473;-77
2021/05/13 10:38:46;;;;;;;2.57;2.07;;;17.40;99.90;;;;;;5097124;28;20643;-76
2021/05/13 10:41:32;;;;;;;3.70;2.03;;;17.40;99.90;;;;;;5109426;28;20453;-75
2021/05/13 10:44:11;;;;;;;4.37;2.70;;;17.60;99.90;;;;;;5110322;28;20428;-76
2021/05/13 10:46:39;;;;;;;3.37;2.00;;;17.80;99.90;;;;;;5106030;28;20769;-76
2021/05/13 10:49:19;;;;;;;3.90;2.57;;;17.90;99.90;;;;;;5108845;28;20472;-75
2021/05/13 10:51:48;;;;;;;3.47;2.20;;;17.80;99.90;;;;;;5109030;28;20529;-75
2021/05/13 10:54:28;;;;;;;5.07;2.40;;;17.70;99.90;;;;;;5108576;28;20461;-78
2021/05/13 10:57:20;;;;;;;5.97;2.77;;;17.60;99.90;;;;;;5100885;28;20477;-77
2021/05/13 11:00:05;;;;;;;4.23;2.53;;;17.60;99.90;;;;;;5102888;28;20425;-78
2021/05/13 11:02:38;;;;;;;3.17;1.80;;;17.70;99.90;;;;;;5108794;28;20543;-78
2021/05/13 11:05:39;;;;;;;3.73;2.17;;;17.70;99.90;;;;;;5108368;28;20422;-75
2021/05/13 11:08:07;;;;;;;3.33;2.97;;;17.80;99.90;;;;;;5108940;28;20420;-76
2021/05/13 11:10:48;;;;;;;3.00;2.10;;;17.80;99.90;;;;;;5107970;28;20442;-77
2021/05/13 11:13:14;;;;;;;3.70;2.20;;;17.80;99.90;;;;;;5108172;28;20437;-76
2021/05/13 11:15:47;;;;;;;4.40;2.17;;;17.80;99.90;;;;;;5108414;28;20439;-78
2021/05/13 11:18:18;;;;;;;3.73;2.43;;;17.90;99.90;;;;;;5107615;28;20411;-77
2021/05/13 11:20:46;;;;;;;4.33;2.00;;;18.00;99.90;;;;;;5107728;28;20430;-77
2021/05/13 11:23:21;;;;;;;6.13;2.60;;;18.00;99.90;;;;;;5101819;28;20468;-77
2021/05/13 11:25:57;;;;;;;3.67;2.10;;;18.40;99.70;;;;;;5105833;28;20414;-76
2021/05/13 11:28:43;;;;;;;5.00;2.40;;;18.40;99.90;;;;;;5108096;28;20410;-75
2021/05/13 11:31:11;;;;;;;2.60;1.87;;;18.60;99.10;;;;;;5107815;28;20455;-78
2021/05/13 11:33:52;;;;;;;2.57;2.37;;;18.60;96.70;;;;;;5107976;28;20533;-77
2021/05/13 11:36:27;;;;;;;3.73;2.50;;;18.80;96.20;;;;;;5107112;28;20913;-77
2021/05/13 11:39:04;;;;;;;4.50;2.80;;;18.80;96.50;;;;;;5107967;28;20453;-77
2021/05/13 11:41:29;;;;;;;3.00;2.40;;;19.00;98.60;;;;;;5104613;28;20520;-77
2021/05/13 11:43:55;;;;;;;1.70;1.60;;;19.10;97.20;;;;;;5107826;28;20467;-77
2021/05/13 11:46:26;;;;;;;3.57;2.03;;;19.10;93.30;;;;;;5108097;28;20191;-77
2021/05/13 11:48:53;;;;;;;3.23;2.07;;;19.20;92.10;;;;;;5108053;28;20184;-77
2021/05/13 11:51:23;;;;;;;2.03;1.83;;;19.40;91.60;;;;;;5108094;28;21100;-77
2021/05/13 11:53:50;;;;;;;2.77;2.03;;;19.70;92.10;;;;;;5093080;28;20993;-75
2021/05/13 11:56:17;;;;;;;3.83;2.37;;;19.90;91.20;;;;;;5107948;28;20424;-75
2021/05/13 11:58:59;;;;;;;3.50;2.57;;;20.00;92.60;;;;;;5110583;28;20418;-76
2021/05/13 12:01:36;;;;;;;4.43;3.20;;;20.20;94.00;;;;;;5108387;28;20438;-76
2021/05/13 12:04:12;;;;;;;4.23;2.90;;;20.40;93.90;;;;;;5094366;28;20422;-75
2021/05/13 12:07:01;;;;;;;3.27;2.23;;;21.10;92.50;;;;;;5107318;28;20503;-75
2021/05/13 12:09:34;;;;;;;3.80;2.87;;;21.80;93.00;;;;;;5099180;28;20406;-76
2021/05/13 12:12:01;;;;;;;2.80;2.13;;;22.10;92.60;;;;;;5107170;28;20725;-76
2021/05/13 12:14:31;;;;;;;2.60;1.67;;;22.80;89.70;;;;;;5097183;28;20521;-76
2021/05/13 12:17:02;;;;;;;5.30;2.47;;;22.80;82.70;;;;;;5107310;28;20965;-76
2021/05/13 12:19:31;;;;;;;3.20;2.90;;;22.60;80.90;;;;;;5099479;28;20509;-76
2021/05/13 12:22:06;;;;;;;3.00;2.43;;;22.80;81.00;;;;;;5108107;28;20441;-76
2021/05/13 12:24:45;;;;;;;3.27;2.30;;;23.40;80.20;;;;;;5103101;28;20417;-76
2021/05/13 12:27:13;;;;;;;3.87;2.70;;;23.30;80.30;;;;;;5109272;28;20418;-76
2021/05/13 12:29:45;;;;;;;3.57;2.90;;;23.40;79.10;;;;;;5113069;28;20541;-78
2021/05/13 12:32:11;;;;;;;3.20;2.90;;;22.90;78.10;;;;;;5116499;28;20449;-76
2021/05/13 12:34:42;;;;;;;4.27;3.07;;;22.40;80.00;;;;;;5116207;28;20465;-76
2021/05/13 12:37:18;;;;;;;4.43;3.17;;;22.00;81.80;;;;;;5116160;28;20175;-77
2021/05/13 12:39:44;;;;;;;4.07;2.80;;;21.50;80.70;;;;;;5110560;28;20445;-76
2021/05/13 12:42:29;;;;;;;4.60;2.47;;;20.90;88.80;;;;;;5111100;28;20476;-77
2021/05/13 12:45:21;;;;;;;2.50;2.30;;;20.00;94.30;;;;;;5111048;28;20184;-77
2021/05/13 12:48:02;;;;;;;6.23;2.93;;;19.40;96.70;;;;;;5106226;28;20410;-75
2021/05/13 12:50:28;;;;;;;4.33;2.73;;;19.10;98.50;;;;;;5102772;28;20430;-76
2021/05/13 12:53:14;;;;;;;4.50;2.50;;;19.00;99.90;;;;;;5111965;28;20417;-76
2021/05/13 12:55:45;;;;;;;3.87;2.47;;;18.80;99.90;;;;;;5105528;28;20436;-76
2021/05/13 12:58:19;;;;;;;3.93;2.87;;;18.40;99.90;;;;;;5111203;28;20406;-77
2021/05/13 13:01:00;;;;;;;5.20;2.67;;;18.10;99.90;;;;;;5110639;28;20437;-77